Time;durP1;ratioP1;P1;durP2;ratioP2;P2;SDS_P1;SDS_P2;PMS_P1;PMS_P2;Temp;Humidity;BMP_temperature;BMP_pressure;BME280_temperature;BME280_humidity;BME280_pressure;Samples;Min_cycle;Max_cycle;Signal;HPM_P1;HPM_P2
2022/04/07 00:01:54;;;;;;;12.82;6.47;;;9.00;99.90;;;;;;4864508;29;20100;-78
2022/04/07 00:04:21;;;;;;;12.63;6.47;;;9.00;99.90;;;;;;4881412;29;20406;-79
2022/04/07 00:06:46;;;;;;;14.02;6.72;;;9.20;99.90;;;;;;4864772;29;20060;-78
2022/04/07 00:09:12;;;;;;;13.38;6.20;;;9.00;99.90;;;;;;4881495;29;20048;-77
2022/04/07 00:11:38;;;;;;;11.38;5.90;;;9.00;99.90;;;;;;4881222;29;20057;-78
2022/04/07 00:14:04;;;;;;;12.35;6.10;;;9.00;99.90;;;;;;4864741;29;20417;-78
2022/04/07 00:16:30;;;;;;;11.55;6.22;;;9.00;99.90;;;;;;4881266;29;20052;-79
2022/04/07 00:18:57;;;;;;;9.70;5.32;;;9.00;99.90;;;;;;4848745;29;20056;-78
2022/04/07 00:21:35;;;;;;;11.38;5.65;;;9.40;99.90;;;;;;4881020;29;20067;-77
2022/04/07 00:24:06;;;;;;;12.77;6.00;;;9.00;99.90;;;;;;4864781;29;20101;-78
2022/04/07 00:26:32;;;;;;;10.57;5.70;;;9.00;99.90;;;;;;4881155;29;20072;-78
2022/04/07 00:28:58;;;;;;;10.60;5.30;;;9.20;99.90;;;;;;4880360;29;20534;-77
2022/04/07 00:31:24;;;;;;;11.90;5.55;;;8.90;99.90;;;;;;4881168;29;20049;-77
2022/04/07 00:33:50;;;;;;;17.80;6.20;;;8.90;99.90;;;;;;4863917;29;20467;-77
2022/04/07 00:36:16;;;;;;;9.77;5.85;;;8.90;99.90;;;;;;4880477;29;20053;-76
2022/04/07 00:38:41;;;;;;;11.60;4.53;;;8.90;99.90;;;;;;4881107;29;20068;-76
2022/04/07 00:41:07;;;;;;;10.82;4.65;;;8.80;99.90;;;;;;4880670;29;20104;-75
2022/04/07 00:43:34;;;;;;;12.10;4.68;;;8.70;99.90;;;;;;4880839;29;20041;-75
2022/04/07 00:46:01;;;;;;;10.15;4.40;;;8.60;99.90;;;;;;4880636;29;20510;-76
2022/04/07 00:48:27;;;;;;;12.98;4.90;;;8.50;99.90;;;;;;4880215;29;20409;-73
2022/04/07 00:50:57;;;;;;;13.75;4.75;;;8.50;99.90;;;;;;4848325;29;20041;-76
2022/04/07 00:53:23;;;;;;;11.43;4.28;;;8.40;99.90;;;;;;4864239;29;20068;-76
2022/04/07 00:55:53;;;;;;;10.70;5.28;;;8.40;99.90;;;;;;4848632;29;20092;-75
2022/04/07 00:58:19;;;;;;;11.88;4.97;;;8.40;99.90;;;;;;4879688;29;20053;-76
2022/04/07 01:00:46;;;;;;;15.60;5.90;;;8.40;99.90;;;;;;4879501;29;20566;-75
2022/04/07 01:03:12;;;;;;;12.05;5.88;;;8.40;99.90;;;;;;4863710;29;20053;-77
2022/04/07 01:05:38;;;;;;;14.75;6.22;;;8.30;99.90;;;;;;4880359;29;20068;-75
2022/04/07 01:08:06;;;;;;;12.85;6.18;;;8.70;99.90;;;;;;4880006;29;20132;-75
2022/04/07 01:10:32;;;;;;;9.13;3.95;;;8.30;99.90;;;;;;4880229;29;20088;-76
2022/04/07 01:12:58;;;;;;;6.18;2.58;;;8.30;99.90;;;;;;4880333;29;20086;-77
2022/04/07 01:15:23;;;;;;;5.20;1.80;;;8.20;99.90;;;;;;4880391;29;20154;-74
2022/04/07 01:17:50;;;;;;;7.22;2.70;;;8.20;99.90;;;;;;4880397;29;20053;-75
2022/04/07 01:20:16;;;;;;;7.68;3.50;;;8.20;99.90;;;;;;4879878;29;20518;-76
2022/04/07 01:22:45;;;;;;;6.60;2.85;;;8.20;99.90;;;;;;4879723;29;20056;-75
2022/04/07 01:25:11;;;;;;;6.05;2.60;;;8.20;99.90;;;;;;4863122;29;20053;-75
2022/04/07 01:27:40;;;;;;;7.55;2.80;;;8.10;99.90;;;;;;4863830;29;20049;-74
2022/04/07 01:30:10;;;;;;;4.28;1.73;;;8.00;99.90;;;;;;4880042;29;20060;-74
2022/04/07 01:32:41;;;;;;;6.22;1.88;;;8.00;99.90;;;;;;4879978;29;20051;-77
2022/04/07 01:35:11;;;;;;;7.95;3.00;;;7.90;99.90;;;;;;4880152;29;20166;-76
2022/04/07 01:37:38;;;;;;;9.40;3.85;;;7.90;99.90;;;;;;4879843;29;20041;-75
2022/04/07 01:40:06;;;;;;;14.50;4.50;;;7.90;99.90;;;;;;4879255;29;20045;-75
2022/04/07 01:42:34;;;;;;;9.63;4.40;;;7.90;99.90;;;;;;4879828;29;20060;-76
2022/04/07 01:45:03;;;;;;;9.13;4.60;;;8.40;99.90;;;;;;4879677;29;20048;-74
2022/04/07 01:47:31;;;;;;;11.55;5.00;;;7.90;99.90;;;;;;4879496;29;20505;-76
2022/04/07 01:50:06;;;;;;;12.05;5.57;;;7.90;99.90;;;;;;4879853;29;20053;-77
2022/04/07 01:52:33;;;;;;;10.68;4.93;;;7.90;99.90;;;;;;4862942;29;20045;-75
2022/04/07 01:55:00;;;;;;;12.10;4.97;;;7.90;99.90;;;;;;4879021;29;20101;-76
2022/04/07 01:57:26;;;;;;;12.18;5.28;;;8.00;99.90;;;;;;4862924;29;20044;-75
2022/04/07 01:59:53;;;;;;;15.02;6.68;;;7.90;99.90;;;;;;4862757;29;20057;-78
2022/04/07 02:02:23;;;;;;;15.82;7.18;;;8.20;99.90;;;;;;4879447;29;20052;-78
2022/04/07 02:05:11;;;;;;;12.07;6.20;;;8.00;99.90;;;;;;4879794;29;20048;-76
2022/04/07 02:07:39;;;;;;;17.60;6.85;;;8.10;99.90;;;;;;4879459;29;20048;-74
2022/04/07 02:10:09;;;;;;;13.00;6.45;;;8.60;99.90;;;;;;4879311;29;20081;-75
2022/04/07 02:12:37;;;;;;;16.60;6.85;;;8.10;99.90;;;;;;4878195;29;20420;-77
2022/04/07 02:15:04;;;;;;;15.43;6.30;;;8.60;99.90;;;;;;4879297;29;20119;-76
2022/04/07 02:17:29;;;;;;;13.50;5.78;;;8.20;99.90;;;;;;4879545;29;20932;-76
2022/04/07 02:19:59;;;;;;;13.38;6.10;;;8.20;99.90;;;;;;4879392;29;20080;-77
2022/04/07 02:22:28;;;;;;;13.45;5.78;;;8.20;99.90;;;;;;4879425;29;20061;-76
2022/04/07 02:24:54;;;;;;;12.75;5.15;;;8.20;99.90;;;;;;4862981;29;20517;-74
2022/04/07 02:27:20;;;;;;;13.73;5.45;;;8.30;99.90;;;;;;4878541;29;20041;-76
2022/04/07 02:29:46;;;;;;;14.50;5.05;;;8.30;99.90;;;;;;4879094;29;20061;-78
2022/04/07 02:32:11;;;;;;;15.25;4.80;;;8.30;99.90;;;;;;4879224;29;20041;-77
2022/04/07 02:34:38;;;;;;;11.50;4.50;;;8.30;99.90;;;;;;4862599;29;20050;-77
2022/04/07 02:37:04;;;;;;;10.20;3.97;;;8.30;99.90;;;;;;4879243;29;20389;-77
2022/04/07 02:39:29;;;;;;;9.35;2.90;;;8.20;99.90;;;;;;4878906;29;20045;-75
2022/04/07 02:41:55;;;;;;;12.10;3.47;;;8.20;99.90;;;;;;4862094;29;20124;-77
2022/04/07 02:44:21;;;;;;;10.63;3.30;;;8.20;99.90;;;;;;4861298;29;20049;-78
2022/04/07 02:46:46;;;;;;;9.32;3.20;;;8.80;99.90;;;;;;4878876;29;20057;-77
2022/04/07 02:49:13;;;;;;;9.27;3.42;;;8.20;99.90;;;;;;4861050;29;20065;-77
2022/04/07 02:51:39;;;;;;;8.98;3.63;;;8.20;99.90;;;;;;4862015;29;20053;-77
2022/04/07 02:54:05;;;;;;;12.18;3.22;;;8.20;99.90;;;;;;4878905;29;20108;-74
2022/04/07 02:56:30;;;;;;;8.55;3.70;;;8.20;99.90;;;;;;4861967;29;20053;-76
2022/04/07 02:58:57;;;;;;;9.05;3.50;;;8.20;99.90;;;;;;4878340;29;20063;-76
2022/04/07 03:01:23;;;;;;;11.85;3.95;;;8.10;99.90;;;;;;4878843;29;20048;-77
2022/04/07 03:03:49;;;;;;;12.98;4.43;;;8.10;99.90;;;;;;4878212;29;20484;-77
2022/04/07 03:06:16;;;;;;;11.60;3.38;;;8.10;99.90;;;;;;4879018;29;20085;-77
2022/04/07 03:08:42;;;;;;;12.02;4.43;;;8.10;99.90;;;;;;4878909;29;20051;-77
2022/04/07 03:11:09;;;;;;;13.25;4.10;;;8.10;99.90;;;;;;4878319;29;20472;-77
2022/04/07 03:13:36;;;;;;;10.95;4.75;;;8.10;99.90;;;;;;4878804;29;20041;-77
2022/04/07 03:16:03;;;;;;;13.55;4.07;;;8.20;99.90;;;;;;4878461;29;20067;-77
2022/04/07 03:18:28;;;;;;;12.32;4.38;;;8.10;99.90;;;;;;4878712;29;20128;-77
2022/04/07 03:20:55;;;;;;;13.48;4.40;;;8.20;99.90;;;;;;4880602;29;20140;-75
2022/04/07 03:23:20;;;;;;;10.00;3.75;;;8.20;99.90;;;;;;4882346;29;20136;-75
2022/04/07 03:25:46;;;;;;;14.43;4.28;;;8.20;99.90;;;;;;4865874;29;20133;-76
2022/04/07 03:28:12;;;;;;;12.52;4.90;;;8.20;99.90;;;;;;4882228;29;20181;-76
2022/04/07 03:30:39;;;;;;;18.27;5.00;;;8.20;99.90;;;;;;4881805;29;20060;-77
2022/04/07 03:33:08;;;;;;;12.00;5.07;;;8.20;99.90;;;;;;4881865;29;20092;-77
2022/04/07 03:35:34;;;;;;;12.38;4.20;;;8.20;99.90;;;;;;4881979;29;20052;-77
2022/04/07 03:38:07;;;;;;;20.65;5.78;;;8.20;99.90;;;;;;4865882;29;20037;-76
2022/04/07 03:40:35;;;;;;;10.45;4.38;;;8.20;99.90;;;;;;4881856;29;20052;-73
2022/04/07 03:43:02;;;;;;;13.30;4.50;;;8.20;99.90;;;;;;4865420;29;20061;-77
2022/04/07 03:45:28;;;;;;;14.32;4.47;;;8.20;99.90;;;;;;4882191;29;20112;-76
2022/04/07 03:47:57;;;;;;;12.73;3.70;;;8.20;99.90;;;;;;4881501;29;20053;-76
2022/04/07 03:50:23;;;;;;;14.13;3.97;;;8.30;99.90;;;;;;4881739;29;20061;-77
2022/04/07 03:52:49;;;;;;;11.88;3.20;;;8.10;99.90;;;;;;4881953;29;20055;-76
2022/04/07 03:55:15;;;;;;;8.90;2.15;;;8.20;99.90;;;;;;4865324;29;20133;-75
2022/04/07 03:57:41;;;;;;;7.60;2.20;;;8.10;99.90;;;;;;4881570;29;20557;-77
2022/04/07 04:00:07;;;;;;;7.93;2.42;;;8.40;99.90;;;;;;4864862;29;20056;-76
2022/04/07 04:02:33;;;;;;;5.65;2.17;;;8.10;99.90;;;;;;4864822;29;20044;-76
2022/04/07 04:04:58;;;;;;;7.82;2.42;;;8.10;99.90;;;;;;4864325;29;20523;-76
2022/04/07 04:07:24;;;;;;;10.32;3.28;;;8.10;99.90;;;;;;4881638;29;20458;-75
2022/04/07 04:09:50;;;;;;;9.60;2.65;;;8.10;99.90;;;;;;4881448;29;20047;-76
2022/04/07 04:12:16;;;;;;;11.40;2.55;;;8.10;99.90;;;;;;4881392;29;20446;-73
2022/04/07 04:14:42;;;;;;;9.73;2.40;;;8.00;99.90;;;;;;4881435;29;20096;-77
2022/04/07 04:17:11;;;;;;;9.27;2.70;;;8.00;99.90;;;;;;4865233;29;20128;-77
2022/04/07 04:19:37;;;;;;;9.93;3.42;;;8.00;99.90;;;;;;4848828;29;20509;-76
2022/04/07 04:22:03;;;;;;;8.63;2.95;;;8.00;99.90;;;;;;4866769;29;20401;-76
2022/04/07 04:24:28;;;;;;;11.88;2.80;;;8.00;99.90;;;;;;4900072;29;20060;-76
2022/04/07 04:26:54;;;;;;;8.82;2.80;;;8.50;99.90;;;;;;4899960;29;20044;-76
2022/04/07 04:29:20;;;;;;;8.38;2.40;;;8.00;99.90;;;;;;4882640;29;20489;-76
2022/04/07 04:31:46;;;;;;;9.30;2.97;;;8.00;99.90;;;;;;4898738;29;20120;-76
2022/04/07 04:34:11;;;;;;;12.55;3.60;;;8.10;99.90;;;;;;4899896;29;20049;-76
2022/04/07 04:36:37;;;;;;;9.38;2.97;;;8.40;99.90;;;;;;4899477;29;20053;-77
2022/04/07 04:39:03;;;;;;;6.78;2.00;;;8.10;99.90;;;;;;4882715;29;20063;-77
2022/04/07 04:41:29;;;;;;;10.07;2.70;;;8.10;99.90;;;;;;4899677;29;20040;-76
2022/04/07 04:44:00;;;;;;;11.80;2.67;;;8.30;99.90;;;;;;4899497;29;20052;-77
2022/04/07 04:46:28;;;;;;;12.65;2.42;;;8.10;99.90;;;;;;4899707;29;20096;-76
2022/04/07 04:48:54;;;;;;;12.35;3.05;;;8.40;99.90;;;;;;4896537;29;20490;-77
2022/04/07 04:51:20;;;;;;;10.48;2.95;;;8.10;99.90;;;;;;4899018;29;20056;-77
2022/04/07 04:53:45;;;;;;;16.55;3.33;;;8.10;99.90;;;;;;4899409;29;20177;-76
2022/04/07 04:56:11;;;;;;;8.48;2.65;;;8.10;99.90;;;;;;4899270;29;20091;-77
2022/04/07 04:58:37;;;;;;;7.93;2.60;;;8.50;99.90;;;;;;4882151;29;20060;-78
2022/04/07 05:01:03;;;;;;;12.73;3.10;;;8.10;99.90;;;;;;4882183;29;20180;-78
2022/04/07 05:03:29;;;;;;;13.77;2.90;;;8.10;99.90;;;;;;4899353;29;20075;-77
2022/04/07 05:05:54;;;;;;;10.85;2.75;;;8.10;99.90;;;;;;4899259;29;20520;-76
2022/04/07 05:08:20;;;;;;;13.65;3.78;;;8.10;99.90;;;;;;4898647;29;20083;-73
2022/04/07 05:10:46;;;;;;;14.77;3.53;;;8.60;99.90;;;;;;4899129;29;20401;-76
2022/04/07 05:13:14;;;;;;;10.90;2.78;;;8.10;99.90;;;;;;4898913;29;20080;-77
2022/04/07 05:15:40;;;;;;;12.73;2.50;;;8.20;99.90;;;;;;4899222;29;20121;-76
2022/04/07 05:18:06;;;;;;;10.68;2.47;;;8.20;99.90;;;;;;4899121;29;20096;-75
2022/04/07 05:20:32;;;;;;;14.18;2.65;;;8.10;99.90;;;;;;4898709;29;20061;-76
2022/04/07 05:22:58;;;;;;;9.95;2.78;;;8.10;99.90;;;;;;4898693;29;20058;-76
2022/04/07 05:25:23;;;;;;;14.18;3.45;;;8.10;99.90;;;;;;4898560;29;20041;-77
2022/04/07 05:27:50;;;;;;;10.07;2.22;;;8.10;99.90;;;;;;4898736;29;20052;-76
2022/04/07 05:30:16;;;;;;;7.72;1.90;;;8.00;99.90;;;;;;4898609;29;20477;-74
2022/04/07 05:32:43;;;;;;;4.95;1.60;;;7.90;99.90;;;;;;4898609;29;20092;-75
2022/04/07 05:35:11;;;;;;;7.13;1.98;;;7.80;99.90;;;;;;4898218;29;20092;-77
2022/04/07 05:37:38;;;;;;;13.23;2.53;;;7.70;99.90;;;;;;4898852;29;20048;-75
2022/04/07 05:40:04;;;;;;;15.25;2.92;;;8.10;99.90;;;;;;4897993;29;20051;-75
2022/04/07 05:42:31;;;;;;;14.43;3.35;;;7.50;99.90;;;;;;4898343;29;20051;-77
2022/04/07 05:44:56;;;;;;;12.05;3.30;;;7.70;99.90;;;;;;4898067;29;20048;-76
2022/04/07 05:47:22;;;;;;;13.80;3.17;;;7.80;99.90;;;;;;4881957;29;20067;-77
2022/04/07 05:49:47;;;;;;;9.00;2.97;;;7.80;99.90;;;;;;4898628;29;20370;-76
2022/04/07 05:52:13;;;;;;;11.13;3.40;;;7.80;99.90;;;;;;4898512;29;20509;-77
2022/04/07 05:54:39;;;;;;;13.52;3.50;;;7.90;99.90;;;;;;4898261;29;20048;-77
2022/04/07 05:57:06;;;;;;;12.32;3.50;;;7.80;99.90;;;;;;4897831;29;20049;-78
2022/04/07 05:59:32;;;;;;;11.10;3.30;;;7.80;99.90;;;;;;4898109;29;20052;-77
2022/04/07 06:01:57;;;;;;;13.32;4.00;;;7.80;99.90;;;;;;4898598;29;20072;-74
2022/04/07 06:04:23;;;;;;;13.70;3.17;;;8.20;99.90;;;;;;4881478;29;20048;-77
2022/04/07 06:06:49;;;;;;;11.45;3.13;;;7.80;99.90;;;;;;4898260;29;20052;-77
2022/04/07 06:09:14;;;;;;;12.63;2.97;;;7.80;99.90;;;;;;4898224;29;20116;-77
2022/04/07 06:11:40;;;;;;;2.25;0.80;;;7.90;99.90;;;;;;4897734;29;20124;-75
2022/04/07 06:14:06;;;;;;;4.10;0.40;;;7.00;99.90;;;;;;4898061;29;20489;-76
2022/04/07 06:16:31;;;;;;;3.72;0.52;;;5.60;99.90;;;;;;4887442;29;20049;-74
2022/04/07 06:18:57;;;;;;;3.00;0.40;;;5.00;99.90;;;;;;4907410;29;20044;-77
2022/04/07 06:21:29;;;;;;;0.25;0.20;;;4.40;99.90;;;;;;4907540;29;20048;-77
2022/04/07 06:23:59;;;;;;;1.52;0.45;;;4.20;99.90;;;;;;4885838;29;20055;-75
2022/04/07 06:26:25;;;;;;;2.17;0.60;;;4.00;99.90;;;;;;4906225;29;20045;-76
2022/04/07 06:28:51;;;;;;;1.92;0.50;;;4.90;99.90;;;;;;4858598;29;20124;-80
2022/04/07 06:31:17;;;;;;;2.45;0.47;;;4.00;99.90;;;;;;4895961;29;20028;-76
2022/04/07 06:33:43;;;;;;;3.15;0.75;;;4.10;99.90;;;;;;4896699;29;20421;-83
2022/04/07 06:36:08;;;;;;;1.75;0.38;;;4.20;99.90;;;;;;4896187;29;20711;-77
2022/04/07 06:38:34;;;;;;;3.10;0.40;;;4.30;99.90;;;;;;4880739;29;20055;-76
2022/04/07 06:41:00;;;;;;;1.20;0.40;;;4.30;99.90;;;;;;4879636;29;20052;-74
2022/04/07 06:43:26;;;;;;;4.53;0.80;;;4.30;99.90;;;;;;4896147;29;20048;-77
2022/04/07 06:45:52;;;;;;;2.60;0.80;;;4.30;99.90;;;;;;4896893;29;20040;-77
2022/04/07 06:48:18;;;;;;;1.15;0.47;;;4.40;99.90;;;;;;4878425;29;20056;-75
2022/04/07 06:50:44;;;;;;;3.72;0.80;;;5.30;99.90;;;;;;4897422;29;20119;-73
2022/04/07 06:53:13;;;;;;;2.20;0.80;;;4.40;99.90;;;;;;4879884;29;20108;-72
2022/04/07 06:55:39;;;;;;;3.25;1.20;;;4.50;99.90;;;;;;4880573;29;20067;-76
2022/04/07 06:58:08;;;;;;;3.42;1.25;;;4.50;99.90;;;;;;4884082;29;20515;-76
2022/04/07 07:00:40;;;;;;;1.52;0.50;;;4.50;99.90;;;;;;4882947;29;20052;-75
2022/04/07 07:03:05;;;;;;;3.28;0.70;;;4.70;99.90;;;;;;4897461;29;20416;-77
2022/04/07 07:05:34;;;;;;;3.22;0.70;;;4.50;99.90;;;;;;4899945;29;20104;-77
2022/04/07 07:08:21;;;;;;;1.55;0.63;;;5.30;99.90;;;;;;4883142;29;20061;-78
2022/04/07 07:10:48;;;;;;;1.83;0.32;;;4.50;99.90;;;;;;4900425;29;20152;-77
2022/04/07 07:13:16;;;;;;;1.23;0.40;;;4.50;99.90;;;;;;4900269;29;20044;-76
2022/04/07 07:15:43;;;;;;;0.55;0.40;;;4.60;99.90;;;;;;4900302;29;20048;-79
2022/04/07 07:18:09;;;;;;;3.95;0.60;;;5.20;99.90;;;;;;4899746;29;20045;-80
2022/04/07 07:20:35;;;;;;;1.73;0.38;;;4.60;99.90;;;;;;4882870;29;20067;-80
2022/04/07 07:23:02;;;;;;;1.58;0.75;;;4.90;99.90;;;;;;4900061;29;20140;-80
2022/04/07 07:25:31;;;;;;;1.90;0.60;;;4.80;99.90;;;;;;4900047;29;20084;-79
2022/04/07 07:27:57;;;;;;;3.78;0.70;;;4.80;99.90;;;;;;4900403;29;20068;-81
2022/04/07 07:30:23;;;;;;;1.00;0.40;;;4.80;99.90;;;;;;4882851;29;20047;-83
2022/04/07 07:32:51;;;;;;;1.92;0.40;;;4.90;99.90;;;;;;4883019;29;20064;-79
2022/04/07 07:35:17;;;;;;;1.55;0.40;;;5.80;99.90;;;;;;4867769;29;20048;-80
2022/04/07 07:38:01;;;;;;;1.25;0.50;;;4.90;99.90;;;;;;4900380;29;20140;-81
2022/04/07 07:40:32;;;;;;;2.00;0.50;;;5.00;99.90;;;;;;4883716;29;20136;-82
2022/04/07 07:43:00;;;;;;;4.68;0.50;;;5.00;99.90;;;;;;4882606;29;20169;-82
2022/04/07 07:45:33;;;;;;;5.32;0.70;;;5.00;99.90;;;;;;4900509;29;20053;-79
2022/04/07 07:47:59;;;;;;;1.10;0.40;;;5.00;99.90;;;;;;4882607;29;20501;-78
2022/04/07 07:50:24;;;;;;;7.00;0.60;;;5.00;99.90;;;;;;4900920;29;20059;-80
2022/04/07 07:52:50;;;;;;;3.47;0.50;;;4.90;99.90;;;;;;4882369;29;20060;-79
2022/04/07 07:55:17;;;;;;;0.68;0.32;;;4.90;99.90;;;;;;4882158;29;20062;-76
2022/04/07 07:57:43;;;;;;;1.75;0.50;;;4.90;99.90;;;;;;4883301;29;20049;-78
2022/04/07 08:00:11;;;;;;;1.85;0.40;;;5.00;99.90;;;;;;4884094;29;20061;-79
2022/04/07 08:02:38;;;;;;;4.75;0.65;;;5.00;99.90;;;;;;4898142;29;20119;-78
2022/04/07 08:05:07;;;;;;;0.50;0.40;;;5.00;99.90;;;;;;4892260;29;20052;-78
2022/04/07 08:07:38;;;;;;;1.80;0.40;;;5.00;99.90;;;;;;4897417;29;20128;-77
2022/04/07 08:10:05;;;;;;;1.73;0.38;;;5.20;99.90;;;;;;4898406;29;20725;-76
2022/04/07 08:12:30;;;;;;;0.85;0.55;;;5.00;99.90;;;;;;4896905;29;20072;-80
2022/04/07 08:14:56;;;;;;;4.20;0.65;;;5.00;99.90;;;;;;4894448;29;20084;-79
2022/04/07 08:17:22;;;;;;;2.78;0.73;;;5.00;99.90;;;;;;4879892;29;20068;-77
2022/04/07 08:19:48;;;;;;;3.80;0.60;;;5.00;99.90;;;;;;4879178;29;20124;-76
2022/04/07 08:22:14;;;;;;;0.57;0.40;;;5.00;99.90;;;;;;4896927;29;20073;-76
2022/04/07 08:24:42;;;;;;;1.50;0.50;;;5.10;99.90;;;;;;4895149;29;20045;-76
2022/04/07 08:27:08;;;;;;;1.02;0.40;;;5.20;99.90;;;;;;4879835;29;20059;-80
2022/04/07 08:29:34;;;;;;;1.85;0.63;;;5.20;99.90;;;;;;4879235;29;20048;-78
2022/04/07 08:32:00;;;;;;;2.83;0.50;;;5.20;99.90;;;;;;4896933;29;20053;-75
2022/04/07 08:34:26;;;;;;;0.98;0.45;;;5.20;99.90;;;;;;4895096;29;20105;-78
2022/04/07 08:36:53;;;;;;;3.70;0.50;;;5.20;99.90;;;;;;4894631;29;20044;-77
2022/04/07 08:39:19;;;;;;;4.85;0.77;;;5.20;99.90;;;;;;4877592;29;20911;-76
2022/04/07 08:41:47;;;;;;;0.95;0.40;;;5.30;99.90;;;;;;4879245;29;20123;-74
2022/04/07 08:44:21;;;;;;;4.72;0.90;;;5.40;99.90;;;;;;4878506;29;20068;-79
2022/04/07 08:46:56;;;;;;;4.00;0.50;;;5.50;99.90;;;;;;4875844;29;20067;-77
2022/04/07 08:49:22;;;;;;;2.38;0.60;;;6.40;99.90;;;;;;4896526;29;20836;-82
2022/04/07 08:51:51;;;;;;;2.10;0.65;;;5.70;99.90;;;;;;4878595;29;20048;-79
2022/04/07 08:54:17;;;;;;;1.75;0.60;;;5.80;99.90;;;;;;4878960;29;20103;-77
2022/04/07 08:56:42;;;;;;;1.70;0.40;;;5.80;99.90;;;;;;4882719;29;20048;-79
2022/04/07 08:59:08;;;;;;;4.10;0.52;;;6.30;99.90;;;;;;4905304;29;20060;-79
2022/04/07 09:01:35;;;;;;;1.55;0.50;;;5.90;99.90;;;;;;4887099;29;20044;-79
2022/04/07 09:04:00;;;;;;;0.77;0.40;;;5.90;99.90;;;;;;4880456;29;20047;-79
2022/04/07 09:06:29;;;;;;;2.88;0.55;;;5.90;99.90;;;;;;4879578;29;20048;-80
2022/04/07 09:08:54;;;;;;;3.42;0.50;;;6.00;99.90;;;;;;4895537;29;20054;-76
2022/04/07 09:11:21;;;;;;;2.33;0.85;;;6.30;99.90;;;;;;4896465;29;20531;-78
2022/04/07 09:13:47;;;;;;;1.13;0.60;;;6.60;99.90;;;;;;4897440;29;20041;-76
2022/04/07 09:16:15;;;;;;;2.58;0.80;;;6.80;99.90;;;;;;4882866;29;20059;-76
2022/04/07 09:18:42;;;;;;;2.53;0.70;;;7.50;99.90;;;;;;4869134;29;20041;-77
2022/04/07 09:21:28;;;;;;;0.80;0.38;;;7.30;99.90;;;;;;4900221;29;20140;-79
2022/04/07 09:23:54;;;;;;;5.72;1.15;;;7.60;99.90;;;;;;4876828;29;20056;-77
2022/04/07 09:26:20;;;;;;;3.15;0.80;;;7.70;99.90;;;;;;4895969;29;20453;-79
2022/04/07 09:28:46;;;;;;;1.50;0.43;;;7.90;99.90;;;;;;4878849;29;20127;-76
2022/04/07 09:31:13;;;;;;;4.90;0.90;;;8.40;99.90;;;;;;4894920;29;20056;-74
2022/04/07 09:33:39;;;;;;;4.90;1.13;;;8.10;99.90;;;;;;4897121;29;20096;-75
2022/04/07 09:36:06;;;;;;;2.83;0.70;;;8.50;99.90;;;;;;4897062;29;20044;-72
2022/04/07 09:38:33;;;;;;;6.60;1.10;;;8.60;99.90;;;;;;4896748;29;20056;-74
2022/04/07 09:41:12;;;;;;;4.40;1.00;;;8.90;99.90;;;;;;4880912;29;20059;-71
2022/04/07 09:43:48;;;;;;;2.95;0.70;;;8.90;99.90;;;;;;4892555;29;20059;-72
2022/04/07 09:46:15;;;;;;;6.55;1.05;;;9.00;99.90;;;;;;4896090;29;20578;-71
2022/04/07 09:49:05;;;;;;;5.13;1.05;;;9.10;99.90;;;;;;4893992;29;20119;-71
2022/04/07 09:51:40;;;;;;;2.55;0.63;;;9.10;99.90;;;;;;4892979;29;20387;-71
2022/04/07 09:54:11;;;;;;;2.60;0.80;;;9.10;99.90;;;;;;4894121;29;20084;-70
2022/04/07 09:56:37;;;;;;;4.35;0.90;;;9.50;99.90;;;;;;4895835;29;20105;-71
2022/04/07 09:59:07;;;;;;;8.68;1.38;;;9.60;99.90;;;;;;4899439;29;20084;-75
2022/04/07 10:01:35;;;;;;;7.63;1.25;;;9.60;99.90;;;;;;4897074;29;20139;-74
2022/04/07 10:04:03;;;;;;;4.68;0.85;;;9.90;99.90;;;;;;4895130;29;20045;-75
2022/04/07 10:06:31;;;;;;;5.63;1.05;;;9.70;99.90;;;;;;4892958;29;20052;-72
2022/04/07 10:09:02;;;;;;;8.98;0.88;;;9.60;99.90;;;;;;4877642;29;20409;-74
2022/04/07 10:11:32;;;;;;;4.35;0.75;;;9.50;99.90;;;;;;4880208;29;20052;-72
2022/04/07 10:13:58;;;;;;;6.35;1.10;;;9.40;99.90;;;;;;4894293;29;20568;-73
2022/04/07 10:16:27;;;;;;;8.00;1.27;;;9.50;99.90;;;;;;4896737;29;20046;-72
2022/04/07 10:18:56;;;;;;;4.03;0.93;;;9.30;99.90;;;;;;4864923;29;20044;-72
2022/04/07 10:21:46;;;;;;;6.28;1.23;;;9.50;99.90;;;;;;4894213;29;20096;-75
2022/04/07 10:24:23;;;;;;;3.67;1.00;;;9.80;99.90;;;;;;4897009;29;20157;-75
2022/04/07 10:26:49;;;;;;;7.03;1.25;;;10.00;99.90;;;;;;4891765;29;20456;-70
2022/04/07 10:29:23;;;;;;;9.43;1.40;;;10.20;99.90;;;;;;4884832;29;20063;-75
2022/04/07 10:32:10;;;;;;;5.68;1.13;;;10.00;99.90;;;;;;4897623;29;20064;-72
2022/04/07 10:34:36;;;;;;;8.20;2.15;;;9.90;99.90;;;;;;4897300;29;20052;-71
2022/04/07 10:37:08;;;;;;;5.88;1.35;;;9.70;99.90;;;;;;4884466;29;20087;-70
2022/04/07 10:39:33;;;;;;;9.23;1.52;;;9.50;99.90;;;;;;4901526;29;20048;-74
2022/04/07 10:41:59;;;;;;;10.43;1.50;;;9.30;99.90;;;;;;4899901;29;20069;-72
2022/04/07 10:44:27;;;;;;;2.50;0.75;;;9.60;99.90;;;;;;4902709;29;20036;-74
2022/04/07 10:47:07;;;;;;;4.03;0.90;;;9.60;99.90;;;;;;4898898;29;20123;-73
2022/04/07 10:49:34;;;;;;;5.72;1.48;;;9.50;99.90;;;;;;4895371;29;20116;-72
2022/04/07 10:52:04;;;;;;;6.38;1.75;;;9.50;99.90;;;;;;4901055;29;20036;-70
2022/04/07 10:54:30;;;;;;;7.05;1.08;;;9.50;99.90;;;;;;4898942;29;20104;-73
2022/04/07 10:56:59;;;;;;;4.38;1.63;;;9.60;99.90;;;;;;4901442;29;20060;-73
2022/04/07 10:59:26;;;;;;;6.05;1.40;;;10.00;99.90;;;;;;4888591;29;20053;-72
2022/04/07 11:01:55;;;;;;;6.55;1.02;;;10.20;99.90;;;;;;4903267;29;20469;-73
2022/04/07 11:04:23;;;;;;;12.10;1.92;;;10.50;99.90;;;;;;4894725;29;20086;-74
2022/04/07 11:07:07;;;;;;;10.35;1.90;;;10.50;99.90;;;;;;4896179;29;20982;-75
2022/04/07 11:09:45;;;;;;;4.57;1.02;;;10.30;99.90;;;;;;4889957;29;20473;-75
2022/04/07 11:12:24;;;;;;;4.88;1.08;;;10.10;99.90;;;;;;4871375;29;20068;-74
2022/04/07 11:15:02;;;;;;;9.63;1.50;;;10.10;99.90;;;;;;4871515;29;20052;-71
2022/04/07 11:17:34;;;;;;;12.05;1.48;;;9.80;99.90;;;;;;4892447;29;20048;-72
2022/04/07 11:20:06;;;;;;;7.22;1.10;;;9.70;99.90;;;;;;4891807;29;20087;-76
2022/04/07 11:22:51;;;;;;;7.25;1.90;;;10.00;99.90;;;;;;4880364;29;20096;-72
2022/04/07 11:25:24;;;;;;;9.18;1.60;;;9.90;99.90;;;;;;4868380;29;20153;-74
2022/04/07 11:28:14;;;;;;;7.53;1.08;;;9.80;99.90;;;;;;4865589;29;20056;-76
2022/04/07 11:30:54;;;;;;;7.28;1.25;;;9.90;99.90;;;;;;4887578;29;20108;-77
2022/04/07 11:33:26;;;;;;;6.40;1.10;;;10.10;99.90;;;;;;4879346;29;20060;-74
2022/04/07 11:36:00;;;;;;;7.22;1.30;;;10.20;99.90;;;;;;4880301;29;20112;-72
2022/04/07 11:38:30;;;;;;;6.05;1.48;;;10.20;99.90;;;;;;4881229;29;20139;-75
2022/04/07 11:41:10;;;;;;;6.00;1.08;;;9.30;99.90;;;;;;4887290;29;20072;-76
2022/04/07 11:43:39;;;;;;;9.88;2.42;;;8.90;99.90;;;;;;4892426;29;20109;-74
2022/04/07 11:46:05;;;;;;;6.70;1.17;;;8.90;99.90;;;;;;4881172;29;20449;-73
2022/04/07 11:48:38;;;;;;;6.40;1.35;;;9.20;99.90;;;;;;4896310;29;20052;-72
2022/04/07 11:51:12;;;;;;;3.95;1.40;;;9.70;99.90;;;;;;4869505;29;20126;-72
2022/04/07 11:53:44;;;;;;;4.55;1.10;;;9.60;99.90;;;;;;4889901;29;20123;-72
2022/04/07 11:56:20;;;;;;;12.57;1.73;;;10.10;99.90;;;;;;4880935;29;20049;-72
2022/04/07 11:59:00;;;;;;;6.85;1.23;;;10.10;99.90;;;;;;4879184;29;20410;-76
2022/04/07 12:01:28;;;;;;;11.65;1.90;;;10.20;99.90;;;;;;4878436;29;20052;-72
2022/04/07 12:03:55;;;;;;;6.85;1.80;;;10.30;99.90;;;;;;4864209;29;21719;-72
2022/04/07 12:06:26;;;;;;;10.15;1.90;;;10.40;99.90;;;;;;4880282;29;20589;-75
2022/04/07 12:08:53;;;;;;;9.93;1.85;;;10.60;99.90;;;;;;4863549;29;20561;-71
2022/04/07 12:11:19;;;;;;;7.32;1.52;;;10.50;99.90;;;;;;4865380;29;20105;-74
2022/04/07 12:13:46;;;;;;;7.13;1.60;;;10.50;99.90;;;;;;4878297;29;20099;-71
2022/04/07 12:16:12;;;;;;;14.23;1.95;;;10.50;99.90;;;;;;4878788;29;20045;-71
2022/04/07 12:18:38;;;;;;;8.20;1.30;;;10.30;99.90;;;;;;4879770;29;20192;-73
2022/04/07 12:21:09;;;;;;;8.40;1.60;;;10.10;99.90;;;;;;4878899;29;20592;-72
2022/04/07 12:23:37;;;;;;;12.93;1.90;;;9.60;99.90;;;;;;4895007;29;20061;-72
2022/04/07 12:26:03;;;;;;;8.40;1.60;;;8.60;99.90;;;;;;4879553;29;20044;-71
2022/04/07 12:28:40;;;;;;;11.30;1.83;;;8.70;99.90;;;;;;4881121;29;20101;-72
2022/04/07 12:31:20;;;;;;;3.47;1.17;;;8.50;99.90;;;;;;4880153;29;20057;-73
2022/04/07 12:33:47;;;;;;;14.55;2.97;;;8.80;99.90;;;;;;4881471;29;20059;-72
2022/04/07 12:36:36;;;;;;;13.43;2.45;;;9.10;99.90;;;;;;4893052;29;20049;-73
2022/04/07 12:39:12;;;;;;;13.95;2.30;;;9.50;99.90;;;;;;4877000;29;20470;-72
2022/04/07 12:41:43;;;;;;;7.38;1.70;;;9.70;99.90;;;;;;4874480;29;20040;-78
2022/04/07 12:44:11;;;;;;;10.35;1.95;;;9.60;99.90;;;;;;4872296;29;20136;-70
2022/04/07 12:46:44;;;;;;;11.23;2.15;;;9.60;99.90;;;;;;4879425;29;20044;-70
2022/04/07 12:49:10;;;;;;;8.05;1.55;;;9.80;99.90;;;;;;4862590;29;20061;-70
2022/04/07 12:51:37;;;;;;;16.38;2.10;;;9.90;99.90;;;;;;4894789;29;20047;-72
2022/04/07 12:54:07;;;;;;;9.07;1.33;;;10.00;99.90;;;;;;4876709;29;20144;-72
2022/04/07 12:56:33;;;;;;;7.20;1.38;;;10.10;99.90;;;;;;4859410;29;20040;-71
2022/04/07 12:59:10;;;;;;;5.18;1.40;;;10.00;99.90;;;;;;4860685;29;20076;-70